Time;durP1;ratioP1;P1;durP2;ratioP2;P2;SDS_P1;SDS_P2;PMS_P1;PMS_P2;Temp;Humidity;BMP_temperature;BMP_pressure;BME280_temperature;BME280_humidity;BME280_pressure;Samples;Min_cycle;Max_cycle;Signal;HPM_P1;HPM_P2
2022/03/20 00:01:17;;;;;;;38.80;19.67;;;0.30;99.90;;;;;;5052497;28;20385;-69
2022/03/20 00:03:42;;;;;;;42.08;21.73;;;0.30;99.90;;;;;;5052470;28;20079;-70
2022/03/20 00:06:08;;;;;;;37.13;18.88;;;0.40;99.90;;;;;;5053710;28;20032;-70
2022/03/20 00:08:34;;;;;;;45.65;21.10;;;0.40;99.90;;;;;;5053645;28;20031;-69
2022/03/20 00:11:01;;;;;;;39.25;20.55;;;0.40;99.90;;;;;;5053070;28;20059;-70
2022/03/20 00:13:28;;;;;;;49.90;23.80;;;0.40;99.90;;;;;;5053566;28;20530;-70
2022/03/20 00:15:56;;;;;;;49.42;24.00;;;0.30;99.90;;;;;;5053537;28;20033;-70
2022/03/20 00:18:23;;;;;;;43.42;21.90;;;0.30;99.90;;;;;;5053855;28;20018;-70
2022/03/20 00:20:57;;;;;;;40.72;21.08;;;0.30;99.90;;;;;;5053426;28;20466;-70
2022/03/20 00:23:23;;;;;;;44.28;21.35;;;0.20;99.90;;;;;;5054091;28;20501;-70
2022/03/20 00:25:50;;;;;;;43.10;22.35;;;0.10;99.90;;;;;;5053420;28;20025;-70
2022/03/20 00:28:18;;;;;;;37.60;19.55;;;0.10;99.90;;;;;;5053270;28;20047;-70
2022/03/20 00:30:44;;;;;;;38.03;20.00;;;0.00;99.90;;;;;;5053240;28;20473;-70
2022/03/20 00:33:11;;;;;;;37.63;19.17;;;-0.10;99.90;;;;;;5053332;28;20021;-70
2022/03/20 00:35:37;;;;;;;35.75;19.17;;;-0.10;99.90;;;;;;5053593;28;20552;-71
2022/03/20 00:38:03;;;;;;;39.83;19.52;;;-0.10;99.90;;;;;;5053814;28;20021;-71
2022/03/20 00:40:29;;;;;;;38.83;20.58;;;-0.10;99.90;;;;;;5053338;28;20028;-70
2022/03/20 00:42:55;;;;;;;37.17;19.13;;;-0.10;99.90;;;;;;5053290;28;20021;-71
2022/03/20 00:45:20;;;;;;;37.55;18.67;;;-0.10;99.90;;;;;;5053724;28;20401;-70
2022/03/20 00:47:48;;;;;;;37.50;17.58;;;-0.10;99.90;;;;;;5053240;28;20029;-71
2022/03/20 00:50:13;;;;;;;38.45;18.52;;;-0.20;99.90;;;;;;5053114;28;20046;-70
2022/03/20 00:52:39;;;;;;;34.60;19.15;;;-0.10;99.90;;;;;;5053378;28;20102;-70
2022/03/20 00:55:05;;;;;;;42.20;20.30;;;-0.10;99.90;;;;;;5053156;28;20017;-70
2022/03/20 00:57:31;;;;;;;40.78;19.38;;;-0.10;99.90;;;;;;5052967;28;20029;-70
2022/03/20 00:59:57;;;;;;;34.55;19.00;;;-0.20;99.90;;;;;;5054247;28;20021;-70
2022/03/20 01:02:23;;;;;;;40.03;19.55;;;-0.20;99.90;;;;;;5055881;28;20025;-70
2022/03/20 01:04:49;;;;;;;39.65;19.50;;;-0.20;99.90;;;;;;5057146;28;20489;-70
2022/03/20 01:07:15;;;;;;;38.72;19.83;;;-0.20;99.90;;;;;;5057129;28;20037;-70
2022/03/20 01:09:41;;;;;;;41.53;20.52;;;-0.20;99.90;;;;;;5056973;28;20027;-70
2022/03/20 01:12:10;;;;;;;40.65;19.92;;;-0.20;99.90;;;;;;5055662;28;20366;-70
2022/03/20 01:14:37;;;;;;;38.75;20.13;;;-0.40;99.90;;;;;;5056910;28;20392;-70
2022/03/20 01:17:04;;;;;;;37.22;19.38;;;-0.40;99.90;;;;;;5056907;28;20029;-70
2022/03/20 01:19:31;;;;;;;33.42;18.40;;;-0.40;99.90;;;;;;5057046;28;20029;-70
2022/03/20 01:21:58;;;;;;;38.33;18.35;;;-0.50;99.90;;;;;;5056813;28;20029;-70
2022/03/20 01:24:24;;;;;;;36.03;17.00;;;-0.50;99.90;;;;;;5056745;28;20037;-70
2022/03/20 01:26:50;;;;;;;33.72;16.63;;;-0.50;99.90;;;;;;5056743;28;20028;-70
2022/03/20 01:29:16;;;;;;;31.52;16.65;;;-0.40;99.90;;;;;;5056840;28;20079;-70
2022/03/20 01:31:42;;;;;;;37.70;17.75;;;-0.50;99.90;;;;;;5055555;28;20021;-70
2022/03/20 01:34:07;;;;;;;34.97;17.45;;;-0.50;99.90;;;;;;5056860;28;20029;-70
2022/03/20 01:36:33;;;;;;;39.35;17.70;;;-0.50;99.90;;;;;;5057094;28;20021;-70
2022/03/20 01:38:59;;;;;;;35.65;17.23;;;-0.50;99.90;;;;;;5056487;28;20032;-71
2022/03/20 01:41:26;;;;;;;36.72;18.02;;;-0.50;99.90;;;;;;5056367;28;20029;-70
2022/03/20 01:43:53;;;;;;;41.88;20.63;;;-0.50;99.90;;;;;;5056399;28;20049;-70
2022/03/20 01:46:20;;;;;;;38.85;18.08;;;-0.50;99.90;;;;;;5056357;28;20029;-70
2022/03/20 01:48:46;;;;;;;33.17;17.42;;;-0.60;99.90;;;;;;5056309;28;20040;-70
2022/03/20 01:51:13;;;;;;;36.20;16.58;;;-0.60;99.90;;;;;;5056120;28;20440;-70
2022/03/20 01:53:39;;;;;;;31.40;16.67;;;-0.60;99.90;;;;;;5056450;28;20043;-70
2022/03/20 01:56:05;;;;;;;29.13;14.68;;;-0.60;99.90;;;;;;5056703;28;20092;-70
2022/03/20 01:58:32;;;;;;;38.35;16.13;;;-0.60;99.90;;;;;;5056006;28;20041;-71
2022/03/20 02:00:58;;;;;;;29.98;13.93;;;-0.70;99.90;;;;;;5056072;28;20071;-70
2022/03/20 02:03:24;;;;;;;28.95;14.63;;;-0.70;99.90;;;;;;5056265;28;20025;-70
2022/03/20 02:05:51;;;;;;;25.98;14.60;;;-0.70;99.90;;;;;;5056601;28;20350;-70
2022/03/20 02:08:25;;;;;;;29.83;15.00;;;-0.70;99.90;;;;;;5056214;28;20025;-70
2022/03/20 02:10:51;;;;;;;29.92;14.20;;;-0.70;99.90;;;;;;5055544;28;20025;-70
2022/03/20 02:13:23;;;;;;;32.33;14.73;;;-0.80;99.90;;;;;;5055842;28;20070;-70
2022/03/20 02:15:51;;;;;;;34.83;15.95;;;-0.80;99.90;;;;;;5054602;28;20021;-70
2022/03/20 02:18:19;;;;;;;32.25;15.05;;;-0.80;99.90;;;;;;5055787;28;20021;-70
2022/03/20 02:20:48;;;;;;;33.65;16.58;;;-0.80;99.90;;;;;;5055633;28;20039;-70
2022/03/20 02:23:15;;;;;;;29.95;14.43;;;-0.80;99.90;;;;;;5055939;28;20033;-70
2022/03/20 02:25:48;;;;;;;28.13;14.30;;;-0.90;99.90;;;;;;5055617;28;20036;-70
2022/03/20 02:28:14;;;;;;;28.50;14.77;;;-0.80;99.90;;;;;;5055592;28;20036;-70
2022/03/20 02:30:40;;;;;;;26.88;14.13;;;-0.80;99.90;;;;;;5055431;28;20017;-70
2022/03/20 02:33:05;;;;;;;29.30;14.35;;;-0.80;99.90;;;;;;5055363;28;20025;-70
2022/03/20 02:35:32;;;;;;;27.02;13.85;;;-0.90;99.90;;;;;;5054404;28;20447;-69
2022/03/20 02:37:57;;;;;;;31.00;14.90;;;-0.90;99.90;;;;;;5055402;28;20480;-70
2022/03/20 02:40:23;;;;;;;29.52;14.27;;;-0.80;99.90;;;;;;5055317;28;20112;-70
2022/03/20 02:42:53;;;;;;;29.00;14.70;;;-0.80;99.90;;;;;;5055320;28;20083;-69
2022/03/20 02:45:22;;;;;;;30.40;14.88;;;-0.90;99.90;;;;;;5055528;28;20021;-70
2022/03/20 02:47:49;;;;;;;28.95;14.63;;;-1.00;99.90;;;;;;5055237;28;20047;-70
2022/03/20 02:50:18;;;;;;;30.40;15.05;;;-1.00;99.90;;;;;;5055386;28;20469;-70
2022/03/20 02:53:13;;;;;;;35.25;15.88;;;-1.10;99.90;;;;;;5055036;28;20041;-70
2022/03/20 02:55:41;;;;;;;29.05;14.27;;;-1.00;99.90;;;;;;5054597;28;20389;-70
2022/03/20 02:58:10;;;;;;;29.67;14.40;;;-1.10;99.90;;;;;;5054928;28;20545;-70
2022/03/20 03:00:37;;;;;;;31.25;14.73;;;-1.00;99.90;;;;;;5054923;28;20025;-70
2022/03/20 03:03:04;;;;;;;27.20;12.98;;;-1.00;99.90;;;;;;5055212;28;20021;-70
2022/03/20 03:05:31;;;;;;;31.30;15.52;;;-1.00;99.90;;;;;;5053641;28;20033;-70
2022/03/20 03:10:55;;;;;;;26.90;14.05;;;-1.00;99.90;;;;;;5055148;28;20079;-69
2022/03/20 03:13:32;;;;;;;28.40;13.88;;;-1.00;99.90;;;;;;5055082;28;20381;-70
2022/03/20 03:16:04;;;;;;;26.58;13.60;;;-1.00;99.90;;;;;;5054986;28;20083;-70
2022/03/20 03:18:30;;;;;;;26.17;13.02;;;-1.00;99.90;;;;;;5053408;28;20021;-70
2022/03/20 03:20:56;;;;;;;27.48;13.45;;;-1.10;99.90;;;;;;5054528;28;20021;-70
2022/03/20 03:23:25;;;;;;;27.10;13.07;;;-1.10;99.90;;;;;;5054464;28;20029;-70
2022/03/20 03:25:52;;;;;;;24.08;12.55;;;-1.10;99.90;;;;;;5054517;28;20393;-70
2022/03/20 03:28:17;;;;;;;29.63;14.77;;;-1.20;99.90;;;;;;5053126;28;20017;-70
2022/03/20 03:30:47;;;;;;;25.50;13.05;;;-1.20;99.90;;;;;;5054324;28;20039;-70
2022/03/20 03:33:18;;;;;;;28.40;13.27;;;-1.20;99.90;;;;;;5053130;28;20025;-70
2022/03/20 03:35:51;;;;;;;24.20;12.23;;;-1.20;99.90;;;;;;5054775;28;20029;-70
2022/03/20 03:38:19;;;;;;;26.73;12.32;;;-1.10;99.90;;;;;;5054824;28;20033;-70
2022/03/20 03:40:46;;;;;;;21.90;11.27;;;-1.10;99.90;;;;;;5054717;28;20021;-70
2022/03/20 03:43:14;;;;;;;25.05;12.35;;;-1.10;99.90;;;;;;5054779;28;20024;-70
2022/03/20 03:45:40;;;;;;;28.38;12.98;;;-1.10;99.90;;;;;;5054681;28;20493;-71
2022/03/20 03:48:06;;;;;;;24.45;13.05;;;-1.10;99.90;;;;;;5054620;28;20075;-70
2022/03/20 03:50:33;;;;;;;26.02;12.75;;;-1.10;99.90;;;;;;5054100;28;20024;-71
2022/03/20 03:52:59;;;;;;;28.10;13.40;;;-1.10;99.90;;;;;;5053868;28;20037;-70
2022/03/20 03:55:24;;;;;;;25.00;12.10;;;-1.10;99.90;;;;;;5053959;28;20025;-70
2022/03/20 03:57:52;;;;;;;30.00;13.10;;;-1.10;99.90;;;;;;5053718;28;20063;-71
2022/03/20 04:00:19;;;;;;;28.73;13.30;;;-1.10;99.90;;;;;;5053895;28;20025;-70
2022/03/20 04:02:46;;;;;;;25.63;11.52;;;-1.10;99.90;;;;;;5054015;28;20028;-70
2022/03/20 04:05:14;;;;;;;24.33;11.98;;;-1.10;99.90;;;;;;5053760;28;20053;-70
2022/03/20 04:07:41;;;;;;;32.40;16.25;;;-1.10;99.90;;;;;;5052413;28;20077;-71
2022/03/20 04:10:07;;;;;;;32.65;15.77;;;-1.10;99.90;;;;;;5053666;28;20104;-70
2022/03/20 04:12:37;;;;;;;30.33;13.95;;;-1.10;99.90;;;;;;5053503;28;20036;-71
2022/03/20 04:15:13;;;;;;;31.60;14.15;;;-1.10;99.90;;;;;;5053607;28;20040;-71
2022/03/20 04:17:40;;;;;;;30.95;14.20;;;-1.20;99.90;;;;;;5054182;28;20029;-71
2022/03/20 04:20:12;;;;;;;27.67;13.90;;;-1.20;99.90;;;;;;5053672;28;20021;-71
2022/03/20 04:22:40;;;;;;;27.30;13.02;;;-1.10;99.90;;;;;;5053816;28;20017;-71
2022/03/20 04:25:07;;;;;;;26.60;13.60;;;-1.10;99.90;;;;;;5052202;28;20092;-71
2022/03/20 04:27:33;;;;;;;24.42;12.35;;;-1.10;99.90;;;;;;5053409;28;20048;-71
2022/03/20 04:29:59;;;;;;;21.95;10.95;;;-1.10;99.90;;;;;;5052052;28;20025;-71
2022/03/20 04:32:25;;;;;;;23.95;11.15;;;-1.10;99.90;;;;;;5054120;28;20087;-71
2022/03/20 04:34:52;;;;;;;20.90;11.10;;;-1.20;99.90;;;;;;5053314;28;20053;-71
2022/03/20 04:37:21;;;;;;;18.83;10.07;;;-1.20;99.90;;;;;;5053343;28;20041;-71
2022/03/20 04:39:47;;;;;;;20.88;9.88;;;-1.30;99.90;;;;;;5053246;28;20013;-71
2022/03/20 04:42:13;;;;;;;23.85;11.27;;;-1.30;99.90;;;;;;5052000;28;20025;-71
2022/03/20 04:44:40;;;;;;;20.75;10.48;;;-1.30;99.90;;;;;;5053561;28;20040;-71
2022/03/20 04:58:28;;;;;;;18.85;9.88;;;-1.30;99.90;;;;;;5053284;28;20380;-71
2022/03/20 05:00:51;;;;;;;21.05;11.10;;;-1.30;99.90;;;;;;5053065;28;20110;-71
2022/03/20 05:03:18;;;;;;;22.35;10.40;;;-1.30;99.90;;;;;;5053066;28;20485;-71
2022/03/20 05:05:44;;;;;;;22.90;11.52;;;-1.30;99.90;;;;;;5051762;28;20111;-70
2022/03/20 05:08:10;;;;;;;24.08;10.85;;;-1.30;99.90;;;;;;5053302;28;20021;-71
2022/03/20 05:13:20;;;;;;;20.33;11.32;;;-1.30;99.90;;;;;;5053016;28;20078;-71
2022/03/20 05:15:46;;;;;;;28.92;14.23;;;-1.30;99.90;;;;;;5052996;28;20053;-71
2022/03/20 05:18:12;;;;;;;24.70;12.00;;;-1.40;99.90;;;;;;5052979;28;20028;-71
2022/03/20 05:20:38;;;;;;;26.08;12.25;;;-1.50;99.90;;;;;;5052844;28;20017;-71
2022/03/20 05:23:04;;;;;;;23.15;11.48;;;-1.50;99.90;;;;;;5052875;28;20033;-71
2022/03/20 05:25:30;;;;;;;30.60;13.13;;;-1.50;99.90;;;;;;5053162;28;20515;-71
2022/03/20 05:27:57;;;;;;;22.63;10.85;;;-1.50;99.90;;;;;;5052806;28;20025;-71
2022/03/20 05:30:24;;;;;;;29.38;15.38;;;-1.50;99.90;;;;;;5052695;28;20051;-71
2022/03/20 05:32:50;;;;;;;24.60;13.48;;;-1.50;99.90;;;;;;5052466;28;20029;-71
2022/03/20 05:35:16;;;;;;;23.95;11.18;;;-1.50;99.90;;;;;;5053031;28;20024;-70
2022/03/20 05:37:45;;;;;;;22.92;11.35;;;-1.50;99.90;;;;;;5052433;28;20462;-69
2022/03/20 05:40:13;;;;;;;23.05;10.63;;;-1.60;99.90;;;;;;5052884;28;20025;-70
2022/03/20 05:42:38;;;;;;;21.17;9.80;;;-1.60;99.90;;;;;;5052435;28;20031;-69
2022/03/20 05:45:05;;;;;;;18.70;10.15;;;-1.60;99.90;;;;;;5052385;28;20029;-69
2022/03/20 05:47:31;;;;;;;20.38;9.57;;;-1.60;99.90;;;;;;5056068;28;20470;-69
2022/03/20 05:50:01;;;;;;;20.95;10.43;;;-1.60;99.90;;;;;;5056561;28;20397;-69
2022/03/20 05:52:30;;;;;;;25.15;12.93;;;-1.60;99.90;;;;;;5056449;28;20381;-69
2022/03/20 05:54:57;;;;;;;22.13;11.55;;;-1.60;99.90;;;;;;5056226;28;20048;-69
2022/03/20 06:00:16;;;;;;;27.90;12.02;;;-1.70;99.90;;;;;;5056112;28;20032;-69
2022/03/20 06:02:43;;;;;;;22.08;10.88;;;-1.60;99.90;;;;;;5056400;28;20159;-69
2022/03/20 06:05:11;;;;;;;22.77;11.45;;;-1.50;99.90;;;;;;5056284;28;20056;-69
2022/03/20 06:07:44;;;;;;;22.30;11.52;;;-1.50;99.90;;;;;;5056009;28;20025;-69
2022/03/20 06:10:15;;;;;;;21.25;10.35;;;-1.40;99.90;;;;;;5055913;28;20051;-69
2022/03/20 06:12:41;;;;;;;23.08;11.88;;;-1.40;99.90;;;;;;5056153;28;20055;-69
2022/03/20 06:15:10;;;;;;;23.08;11.10;;;-1.30;99.90;;;;;;5055866;28;20041;-69
2022/03/20 06:17:40;;;;;;;21.45;11.13;;;-1.30;99.90;;;;;;5055778;28;20060;-69
2022/03/20 06:20:08;;;;;;;26.15;11.38;;;-1.20;99.90;;;;;;5055717;28;20053;-69
2022/03/20 06:22:35;;;;;;;20.38;10.50;;;-1.20;99.90;;;;;;5056315;28;20074;-68
2022/03/20 06:25:08;;;;;;;29.23;13.90;;;-1.20;99.90;;;;;;5055634;28;20111;-69
2022/03/20 06:27:53;;;;;;;29.00;12.60;;;-1.20;99.90;;;;;;5055954;28;20136;-69
2022/03/20 06:30:21;;;;;;;21.75;10.60;;;-1.10;99.90;;;;;;5054309;28;20029;-69
2022/03/20 06:32:48;;;;;;;23.00;10.88;;;-1.10;99.90;;;;;;5055737;28;20047;-69
2022/03/20 06:35:14;;;;;;;21.20;10.52;;;-1.00;99.90;;;;;;5055473;28;20079;-69
2022/03/20 06:37:44;;;;;;;21.90;10.05;;;-1.00;99.90;;;;;;5055491;28;20090;-69
2022/03/20 06:40:12;;;;;;;22.17;9.80;;;-1.00;99.90;;;;;;5055911;28;20433;-69
2022/03/20 06:42:38;;;;;;;20.00;10.43;;;-0.90;99.90;;;;;;5055336;28;20025;-69
2022/03/20 06:45:10;;;;;;;21.27;10.13;;;-0.90;99.90;;;;;;5055571;28;20029;-69
2022/03/20 06:47:36;;;;;;;22.05;10.35;;;-0.80;99.90;;;;;;5053974;28;20508;-69
2022/03/20 06:50:03;;;;;;;22.23;11.18;;;-0.80;99.90;;;;;;5055150;28;20032;-69
2022/03/20 06:52:29;;;;;;;20.60;10.68;;;-0.70;99.90;;;;;;5055047;28;20025;-69
2022/03/20 06:54:59;;;;;;;23.90;10.40;;;-0.60;99.90;;;;;;5055084;28;20481;-69
2022/03/20 06:57:26;;;;;;;22.38;11.50;;;-0.50;99.90;;;;;;5053918;28;20032;-70
2022/03/20 06:59:55;;;;;;;23.10;11.30;;;-0.50;99.90;;;;;;5054948;28;20025;-69
2022/03/20 07:02:21;;;;;;;20.35;10.25;;;-0.40;99.90;;;;;;5054868;28;20047;-69
2022/03/20 07:04:47;;;;;;;21.08;10.82;;;-0.30;99.90;;;;;;5055297;28;20100;-69
2022/03/20 07:07:15;;;;;;;22.75;10.85;;;-0.20;99.90;;;;;;5054944;28;20020;-69
2022/03/20 07:09:41;;;;;;;19.63;10.05;;;-0.10;99.90;;;;;;5054800;28;20481;-70
2022/03/20 07:12:07;;;;;;;21.60;10.23;;;-0.10;99.90;;;;;;5055001;28;20040;-70
2022/03/20 07:14:33;;;;;;;21.88;10.57;;;0.00;99.90;;;;;;5054747;28;20024;-70
2022/03/20 07:16:59;;;;;;;21.35;10.73;;;0.10;99.90;;;;;;5054727;28;20021;-70
2022/03/20 07:19:26;;;;;;;19.70;9.98;;;0.20;99.90;;;;;;5055101;28;20044;-69
2022/03/20 07:21:52;;;;;;;19.80;10.05;;;0.20;99.90;;;;;;5054541;28;20028;-69
2022/03/20 07:24:18;;;;;;;21.15;10.63;;;0.30;99.90;;;;;;5054599;28;20445;-70
2022/03/20 07:29:31;;;;;;;19.70;10.15;;;0.40;99.90;;;;;;5054656;28;20070;-69
2022/03/20 07:32:02;;;;;;;21.05;10.40;;;0.50;99.90;;;;;;5054847;28;20025;-70
2022/03/20 07:34:29;;;;;;;23.77;11.35;;;0.60;99.90;;;;;;5054639;28;20470;-70
2022/03/20 07:36:55;;;;;;;20.40;10.90;;;0.70;99.90;;;;;;5054268;28;20397;-70
2022/03/20 07:39:21;;;;;;;18.77;10.02;;;0.80;99.90;;;;;;5054199;28;20028;-69
2022/03/20 07:41:47;;;;;;;19.98;9.88;;;0.90;99.90;;;;;;5054543;28;20033;-69
2022/03/20 07:44:12;;;;;;;19.27;10.13;;;1.00;99.90;;;;;;5053157;28;20095;-69
2022/03/20 07:46:41;;;;;;;23.10;10.70;;;1.20;99.90;;;;;;5054363;28;20025;-69
2022/03/20 07:49:08;;;;;;;21.77;10.13;;;1.30;99.90;;;;;;5054373;28;20036;-69
2022/03/20 07:51:34;;;;;;;21.92;9.93;;;1.50;99.90;;;;;;5054502;28;20066;-70
2022/03/20 07:54:00;;;;;;;19.83;10.18;;;1.70;99.90;;;;;;5054257;28;20114;-70
2022/03/20 07:56:28;;;;;;;19.38;10.60;;;1.90;99.90;;;;;;5053801;28;20028;-71
2022/03/20 07:58:55;;;;;;;24.33;12.05;;;2.10;99.90;;;;;;5053892;28;20029;-70
2022/03/20 08:01:21;;;;;;;24.30;12.45;;;2.20;99.90;;;;;;5053883;28;20095;-70
2022/03/20 08:03:48;;;;;;;22.13;12.02;;;2.30;99.90;;;;;;5052846;28;20025;-69
2022/03/20 08:06:15;;;;;;;24.38;12.30;;;2.40;99.90;;;;;;5054028;28;20025;-69
2022/03/20 08:08:41;;;;;;;21.23;11.55;;;2.50;99.90;;;;;;5053491;28;20036;-69
2022/03/20 08:11:08;;;;;;;19.63;10.93;;;2.70;99.90;;;;;;5053506;28;20017;-69
2022/03/20 08:13:34;;;;;;;21.85;11.48;;;2.80;99.90;;;;;;5053925;28;20055;-69
2022/03/20 08:16:00;;;;;;;22.85;11.30;;;2.90;99.90;;;;;;5053928;28;20060;-69
2022/03/20 08:18:26;;;;;;;20.52;10.95;;;3.10;99.90;;;;;;5053610;28;20029;-69
2022/03/20 08:20:52;;;;;;;21.90;12.80;;;3.20;99.90;;;;;;5053604;28;20017;-68
2022/03/20 08:23:18;;;;;;;22.88;12.23;;;3.30;99.90;;;;;;5053501;28;20039;-69
2022/03/20 08:25:44;;;;;;;22.35;11.63;;;3.50;99.90;;;;;;5052258;28;20108;-68
2022/03/20 08:28:11;;;;;;;23.42;12.07;;;3.60;99.50;;;;;;5053471;28;20072;-68
2022/03/20 08:30:38;;;;;;;22.40;11.85;;;3.70;99.40;;;;;;5052086;28;20029;-68
2022/03/20 08:33:05;;;;;;;23.50;12.63;;;3.80;99.10;;;;;;5053502;28;20143;-68
2022/03/20 08:35:31;;;;;;;21.70;11.50;;;3.90;99.30;;;;;;5053342;28;20029;-68
2022/03/20 08:37:57;;;;;;;22.80;11.10;;;4.00;98.20;;;;;;5053520;28;20024;-68
2022/03/20 08:40:24;;;;;;;20.58;11.05;;;4.20;96.70;;;;;;5053250;28;20021;-68
2022/03/20 08:42:55;;;;;;;20.08;10.85;;;4.30;95.80;;;;;;5053490;28;20094;-68
2022/03/20 08:45:26;;;;;;;18.15;10.75;;;4.40;94.90;;;;;;5053544;28;20025;-69
2022/03/20 08:47:52;;;;;;;19.60;10.07;;;4.60;94.30;;;;;;5053210;28;20389;-68
2022/03/20 08:50:19;;;;;;;15.85;9.45;;;4.70;93.40;;;;;;5053953;28;20033;-68
2022/03/20 08:52:46;;;;;;;16.42;9.55;;;4.80;92.80;;;;;;5053057;28;20035;-68
2022/03/20 08:55:13;;;;;;;16.27;9.77;;;4.90;92.50;;;;;;5051883;28;20473;-68
2022/03/20 08:57:41;;;;;;;18.25;9.15;;;5.10;91.90;;;;;;5052935;28;20041;-69
2022/03/20 09:00:10;;;;;;;15.43;8.52;;;5.20;90.50;;;;;;5051756;28;20025;-68
2022/03/20 09:02:36;;;;;;;15.18;9.30;;;5.30;88.20;;;;;;5053355;28;20044;-69
2022/03/20 09:05:02;;;;;;;17.08;9.65;;;5.50;84.50;;;;;;5053334;28;20377;-68
2022/03/20 09:07:29;;;;;;;15.25;8.88;;;5.60;81.60;;;;;;5053589;28;20025;-68
2022/03/20 09:09:54;;;;;;;18.75;8.73;;;5.70;80.50;;;;;;5056484;28;20514;-68
2022/03/20 09:12:20;;;;;;;16.45;9.05;;;5.90;76.70;;;;;;5066968;28;20112;-67
2022/03/20 09:14:46;;;;;;;16.95;9.27;;;6.00;74.60;;;;;;5062435;28;20029;-68
2022/03/20 09:19:57;;;;;;;17.30;9.13;;;6.30;71.30;;;;;;5055447;28;20086;-68
2022/03/20 09:22:26;;;;;;;15.32;8.20;;;6.50;72.10;;;;;;5058418;28;20028;-67
2022/03/20 09:24:52;;;;;;;18.13;8.43;;;6.60;68.20;;;;;;5066305;28;20496;-68
2022/03/20 09:27:18;;;;;;;13.38;7.47;;;6.70;65.90;;;;;;5056564;28;20037;-68
2022/03/20 09:29:44;;;;;;;15.27;7.10;;;6.90;63.60;;;;;;5067741;28;20560;-68
2022/03/20 09:32:09;;;;;;;12.13;6.80;;;7.00;61.60;;;;;;5064488;28;20377;-68
2022/03/20 09:34:35;;;;;;;13.48;7.07;;;7.20;60.80;;;;;;5080043;28;20021;-68
2022/03/20 09:37:01;;;;;;;13.70;7.88;;;7.40;57.90;;;;;;5074907;28;20056;-68
2022/03/20 09:39:27;;;;;;;14.55;8.60;;;7.50;59.60;;;;;;5073844;28;20495;-69
2022/03/20 09:41:55;;;;;;;13.02;7.45;;;7.60;60.00;;;;;;5067174;28;20397;-69
2022/03/20 09:44:25;;;;;;;13.63;7.88;;;7.70;60.00;;;;;;5070932;28;20438;-68
2022/03/20 09:46:51;;;;;;;10.90;7.25;;;7.80;58.60;;;;;;5057441;28;20487;-68
2022/03/20 09:49:20;;;;;;;13.75;7.55;;;7.80;58.90;;;;;;5075818;28;20025;-69
2022/03/20 09:51:46;;;;;;;12.45;7.65;;;7.90;58.80;;;;;;5074028;28;20034;-69
2022/03/20 09:54:13;;;;;;;15.52;8.52;;;8.00;55.70;;;;;;5072339;28;20024;-69
2022/03/20 09:56:43;;;;;;;12.93;7.53;;;8.10;56.10;;;;;;5075373;28;20024;-69
2022/03/20 09:59:10;;;;;;;12.35;7.20;;;8.10;57.70;;;;;;5074573;28;20027;-68
2022/03/20 10:01:36;;;;;;;16.15;7.55;;;8.20;57.00;;;;;;5071263;28;20111;-68
2022/03/20 10:04:16;;;;;;;13.35;7.47;;;8.40;54.90;;;;;;5075848;28;20056;-69
2022/03/20 10:06:43;;;;;;;13.30;7.13;;;8.40;55.50;;;;;;5062133;28;20104;-68
2022/03/20 10:09:11;;;;;;;14.02;7.63;;;8.50;55.00;;;;;;5075245;28;20067;-68
2022/03/20 10:11:46;;;;;;;13.43;7.32;;;8.50;54.00;;;;;;5069116;28;20120;-68
2022/03/20 10:14:21;;;;;;;14.07;7.15;;;8.60;54.20;;;;;;5074495;28;20413;-68
2022/03/20 10:16:55;;;;;;;11.25;6.35;;;8.80;52.10;;;;;;5075729;28;20039;-68
2022/03/20 10:19:23;;;;;;;13.35;7.32;;;9.00;53.50;;;;;;5076112;28;20031;-68
2022/03/20 10:22:09;;;;;;;12.02;6.95;;;9.10;53.70;;;;;;5075530;28;20511;-69
2022/03/20 10:24:37;;;;;;;12.23;6.53;;;9.00;52.90;;;;;;5075189;28;20040;-69
2022/03/20 10:27:03;;;;;;;10.45;6.53;;;9.00;52.70;;;;;;5069190;28;20100;-69
2022/03/20 10:29:34;;;;;;;12.80;6.55;;;9.10;52.10;;;;;;5065315;28;20557;-69
2022/03/20 10:32:10;;;;;;;14.40;7.25;;;9.10;52.30;;;;;;5075866;28;20051;-69
2022/03/20 10:34:55;;;;;;;11.73;6.85;;;9.10;53.00;;;;;;5068415;28;20496;-68
2022/03/20 10:37:42;;;;;;;13.90;7.15;;;9.10;53.80;;;;;;5065612;28;20115;-69
2022/03/20 10:40:10;;;;;;;11.15;6.60;;;9.20;51.40;;;;;;5066400;28;20021;-69
2022/03/20 10:42:36;;;;;;;11.07;6.35;;;9.20;52.20;;;;;;5070309;28;20405;-69
2022/03/20 10:45:06;;;;;;;11.80;6.85;;;9.30;51.70;;;;;;5077386;28;20078;-70
2022/03/20 10:47:32;;;;;;;11.55;6.20;;;9.30;50.70;;;;;;5059509;28;20029;-70
2022/03/20 10:50:07;;;;;;;11.05;6.38;;;9.40;51.10;;;;;;5068761;28;20025;-69
2022/03/20 10:52:38;;;;;;;13.15;6.93;;;9.40;49.50;;;;;;5057979;28;20116;-70
2022/03/20 10:55:17;;;;;;;9.98;6.10;;;9.40;50.30;;;;;;5066678;28;20052;-69
2022/03/20 10:57:43;;;;;;;11.57;6.78;;;9.40;49.20;;;;;;5063102;28;20086;-68
2022/03/20 11:00:11;;;;;;;13.07;6.65;;;9.50;51.10;;;;;;5068850;28;20032;-68
2022/03/20 11:02:39;;;;;;;12.85;7.10;;;9.60;49.70;;;;;;5087904;28;20032;-69
2022/03/20 11:05:06;;;;;;;11.32;6.15;;;9.70;49.90;;;;;;5080662;28;20020;-68
2022/03/20 11:07:32;;;;;;;11.00;7.22;;;9.70;50.00;;;;;;5067884;28;20469;-69
2022/03/20 11:10:00;;;;;;;12.35;7.38;;;9.80;50.50;;;;;;5057746;28;20043;-68
2022/03/20 11:12:33;;;;;;;11.45;6.45;;;9.80;48.40;;;;;;5079801;28;20053;-69
2022/03/20 11:15:07;;;;;;;11.27;6.60;;;9.80;50.10;;;;;;5075722;28;20035;-69
2022/03/20 11:17:44;;;;;;;13.27;7.00;;;9.90;49.70;;;;;;5085761;28;20515;-69
2022/03/20 11:20:12;;;;;;;12.35;6.57;;;9.90;49.00;;;;;;5085154;28;20448;-68
2022/03/20 11:22:45;;;;;;;13.18;6.68;;;10.00;50.10;;;;;;5083438;28;20111;-69
2022/03/20 11:25:11;;;;;;;13.95;6.70;;;10.10;49.30;;;;;;5090415;28;20052;-69
2022/03/20 11:27:42;;;;;;;11.65;6.22;;;10.20;49.60;;;;;;5082751;28;20063;-69
2022/03/20 11:30:08;;;;;;;10.25;6.07;;;10.20;48.80;;;;;;5080130;28;20115;-69
2022/03/20 11:32:35;;;;;;;12.30;6.57;;;10.10;48.40;;;;;;5080940;28;20127;-69
2022/03/20 11:35:03;;;;;;;11.68;6.78;;;10.10;48.70;;;;;;5078053;28;20017;-67
2022/03/20 11:37:43;;;;;;;13.55;7.72;;;10.10;49.20;;;;;;5086032;28;20024;-68
2022/03/20 11:40:19;;;;;;;11.27;7.37;;;10.20;48.90;;;;;;5078320;28;20023;-68
2022/03/20 11:42:45;;;;;;;12.65;7.43;;;10.30;48.60;;;;;;5079708;28;20036;-68
2022/03/20 11:45:14;;;;;;;12.27;7.38;;;10.30;47.90;;;;;;5084766;28;20028;-68
2022/03/20 11:47:42;;;;;;;11.20;6.90;;;10.30;48.60;;;;;;5084190;28;20084;-68
2022/03/20 11:50:13;;;;;;;17.17;9.43;;;10.30;47.70;;;;;;5084017;28;20021;-68
2022/03/20 11:52:55;;;;;;;17.70;8.95;;;10.40;48.50;;;;;;5072108;28;20029;-68
2022/03/20 11:55:25;;;;;;;;;;;10.40;47.90;;;;;;5071942;28;20024;-68
2022/03/20 11:57:51;;;;;;;15.30;6.75;;;10.50;46.90;;;;;;5067360;28;19920;-67
2022/03/20 12:00:21;;;;;;;10.10;6.35;;;10.50;49.00;;;;;;5073664;28;20024;-68
2022/03/20 12:02:52;;;;;;;11.80;6.90;;;10.60;48.40;;;;;;5074081;28;20461;-68
2022/03/20 12:05:35;;;;;;;11.35;6.60;;;10.60;47.90;;;;;;5073854;28;20131;-68
2022/03/20 12:08:09;;;;;;;12.60;6.68;;;10.70;48.20;;;;;;5073821;28;20024;-68
2022/03/20 12:10:51;;;;;;;11.35;6.30;;;10.70;46.80;;;;;;5073616;28;20528;-68
2022/03/20 12:13:58;;;;;;;13.02;6.72;;;10.80;46.90;;;;;;5073572;28;20078;-68
2022/03/20 12:16:54;;;;;;;10.48;6.20;;;10.80;48.80;;;;;;5073400;28;20032;-68
2022/03/20 12:19:37;;;;;;;11.43;7.10;;;10.90;47.40;;;;;;5060656;28;20362;-67
2022/03/20 12:22:05;;;;;;;10.20;5.93;;;10.90;47.50;;;;;;5055952;28;20028;-67
2022/03/20 12:27:34;;;;;;;16.02;6.53;;;11.00;47.60;;;;;;5058684;28;20028;-68
2022/03/20 12:30:08;;;;;;;12.00;6.43;;;11.10;48.10;;;;;;5062198;28;20029;-70
2022/03/20 12:32:46;;;;;;;10.57;6.57;;;11.20;47.20;;;;;;5053222;28;20078;-68
2022/03/20 12:35:12;;;;;;;10.25;6.57;;;11.20;47.70;;;;;;5052789;28;20021;-67
2022/03/20 12:37:40;;;;;;;11.65;6.88;;;11.20;46.90;;;;;;5052422;28;20021;-68
2022/03/20 12:40:18;;;;;;;10.93;6.15;;;11.30;46.10;;;;;;5052218;28;20017;-68
2022/03/20 12:42:58;;;;;;;9.70;6.25;;;11.40;47.30;;;;;;5053225;28;20021;-68
2022/03/20 12:45:28;;;;;;;11.07;6.50;;;11.50;48.40;;;;;;5053582;28;20025;-68
2022/03/20 12:47:57;;;;;;;11.85;6.10;;;11.60;47.90;;;;;;5053214;28;20036;-68
2022/03/20 12:50:25;;;;;;;11.02;6.00;;;11.80;45.40;;;;;;5053176;28;20032;-68
2022/03/20 12:52:55;;;;;;;12.57;6.30;;;11.80;48.00;;;;;;5051903;28;20025;-68
2022/03/20 12:55:27;;;;;;;8.95;6.00;;;12.00;44.70;;;;;;5053708;28;20031;-68
2022/03/20 12:57:53;;;;;;;11.75;6.15;;;12.00;46.30;;;;;;5057495;28;20079;-68
2022/03/20 13:00:21;;;;;;;11.35;7.03;;;12.00;45.50;;;;;;5055954;28;20456;-68
2022/03/20 13:02:59;;;;;;;11.80;6.88;;;12.00;45.70;;;;;;5057215;28;20025;-68
2022/03/20 13:05:27;;;;;;;11.63;7.07;;;11.90;44.90;;;;;;5057778;28;20020;-68
2022/03/20 13:07:53;;;;;;;9.30;5.90;;;11.90;45.40;;;;;;5057150;28;20024;-68
2022/03/20 13:10:20;;;;;;;12.25;6.40;;;11.80;46.30;;;;;;5057346;28;20426;-68